Time;durP1;ratioP1;P1;durP2;ratioP2;P2;SDS_P1;SDS_P2;PMS_P1;PMS_P2;Temp;Humidity;BMP_temperature;BMP_pressure;BME280_temperature;BME280_humidity;BME280_pressure;Samples;Min_cycle;Max_cycle;Signal;HPM_P1;HPM_P2
2023/09/24 00:01:16;;;;;;;1.1;1;;;;;;;11.76;96.24707;944.171;;;;
2023/09/24 00:03:40;;;;;;;1.5;1.2;;;;;;;11.68;95.72656;944.1085;;;;
2023/09/24 00:06:09;;;;;;;1.3;0.9;;;;;;;11.59;96.01563;944.0438;;;;
2023/09/24 00:08:31;;;;;;;2.5;1.1;;;;;;;11.74;95.73926;944.0869;;;;
2023/09/24 00:11:02;;;;;;;1.8;1;;;;;;;11.84;95.54297;944.1328;;;;
2023/09/24 00:13:26;;;;;;;3.1;1.1;;;;;;;11.89;94.45605;944.2358;;;;
2023/09/24 00:15:51;;;;;;;1.5;1;;;;;;;11.87;94.80664;944.1939;;;;
2023/09/24 00:18:17;;;;;;;1;0.9;;;;;;;11.51;97.89941;944.2844;;;;
2023/09/24 00:20:41;;;;;;;1.2;0.9;;;;;;;11.52;98.26563;944.2661;;;;
2023/09/24 00:23:06;;;;;;;1.5;1;;;;;;;11.55;98.02246;944.1828;;;;
2023/09/24 00:25:31;;;;;;;1.3;0.9;;;;;;;11.73;96.74609;944.1833;;;;
2023/09/24 00:27:57;;;;;;;1.7;1;;;;;;;11.74;95.5332;944.2138;;;;
2023/09/24 00:30:22;;;;;;;0.7;0.7;;;;;;;11.76;95.65332;944.2484;;;;
2023/09/24 00:32:47;;;;;;;2.7;1;;;;;;;11.74;94.63965;944.2832;;;;
2023/09/24 00:35:12;;;;;;;1.8;1.2;;;;;;;11.84;95.28223;944.302;;;;
2023/09/24 00:37:37;;;;;;;1.1;0.9;;;;;;;11.79;94.74316;944.2747;;;;
2023/09/24 00:40:03;;;;;;;1.2;0.8;;;;;;;11.78;94.2832;944.2598;;;;
2023/09/24 00:42:27;;;;;;;1.1;0.8;;;;;;;11.78;95.05078;944.2527;;;;
2023/09/24 00:44:52;;;;;;;1.2;0.8;;;;;;;11.76;94.30176;944.282;;;;
2023/09/24 00:47:18;;;;;;;0.8;0.7;;;;;;;11.78;94.26074;944.3005;;;;
2023/09/24 00:49:43;;;;;;;0.7;0.7;;;;;;;11.76;95.28711;944.27;;;;
2023/09/24 00:52:09;;;;;;;0.8;0.8;;;;;;;11.79;95.01758;944.2874;;;;
2023/09/24 00:54:32;;;;;;;1.2;0.9;;;;;;;11.94;95.19824;944.2883;;;;
2023/09/24 00:56:59;;;;;;;1;0.9;;;;;;;12.03;94.36133;944.3273;;;;
2023/09/24 00:59:24;;;;;;;1.5;1;;;;;;;12;93.15039;944.3417;;;;
2023/09/24 01:01:49;;;;;;;1.2;0.7;;;;;;;11.76;93.72949;944.3825;;;;
2023/09/24 01:04:14;;;;;;;2.1;0.6;;;;;;;11.81;94.4375;944.3691;;;;
2023/09/24 01:06:39;;;;;;;1.1;0.9;;;;;;;11.72;94.68164;944.3459;;;;
2023/09/24 01:09:08;;;;;;;1;0.9;;;;;;;11.6;95.51465;944.3758;;;;
2023/09/24 01:11:31;;;;;;;1.1;0.9;;;;;;;11.47;96.1709;944.3929;;;;
2023/09/24 01:13:56;;;;;;;1.9;0.8;;;;;;;11.39;96.48633;944.3818;;;;
2023/09/24 01:16:21;;;;;;;2.5;1.2;;;;;;;11.28;96.71387;944.3943;;;;
2023/09/24 01:18:46;;;;;;;1;0.9;;;;;;;11.42;96.19727;944.4073;;;;
2023/09/24 01:21:12;;;;;;;1.4;0.9;;;;;;;11.33;96.15039;944.4087;;;;
2023/09/24 01:23:37;;;;;;;0.8;0.8;;;;;;;11.25;96.28516;944.3979;;;;
2023/09/24 01:26:03;;;;;;;1.4;0.9;;;;;;;11.36;96.1123;944.4459;;;;
2023/09/24 01:28:30;;;;;;;0.9;0.8;;;;;;;11.41;96.05762;944.475;;;;
2023/09/24 01:30:55;;;;;;;1.1;0.8;;;;;;;11.37;95.6709;944.407;;;;
2023/09/24 01:33:21;;;;;;;0.7;0.7;;;;;;;11.34;95.93945;944.4584;;;;
2023/09/24 01:35:46;;;;;;;2.8;0.8;;;;;;;11.51;95.30176;944.447;;;;
2023/09/24 01:38:11;;;;;;;3;1;;;;;;;11.63;95.12012;944.4698;;;;
2023/09/24 01:40:38;;;;;;;0.9;0.8;;;;;;;11.43;95.32813;944.4928;;;;
2023/09/24 01:43:02;;;;;;;1;0.9;;;;;;;11.5;95.41211;944.4731;;;;
2023/09/24 01:45:28;;;;;;;1.2;0.8;;;;;;;11.53;95.10938;944.3395;;;;
2023/09/24 01:47:54;;;;;;;1.6;0.6;;;;;;;11.53;94.8457;944.3867;;;;
2023/09/24 01:50:20;;;;;;;0.7;0.7;;;;;;;11.62;94.74219;944.4219;;;;
2023/09/24 01:52:45;;;;;;;0.9;0.7;;;;;;;11.65;94.57617;944.3561;;;;
2023/09/24 01:55:13;;;;;;;1.2;0.8;;;;;;;11.54;94.43652;944.26;;;;
2023/09/24 01:57:36;;;;;;;1.2;0.9;;;;;;;11.54;94.95313;944.3127;;;;
2023/09/24 02:00:21;;;;;;;1.6;1;;;;;;;11.27;95.51172;944.4365;;;;
2023/09/24 02:02:28;;;;;;;1.3;0.8;;;;;;;11.18;96.07422;944.4745;;;;
2023/09/24 02:04:52;;;;;;;1.5;0.9;;;;;;;11.28;96.24316;944.4892;;;;
2023/09/24 02:07:17;;;;;;;1.9;1;;;;;;;11.41;96.37598;944.5352;;;;
2023/09/24 02:09:42;;;;;;;1.6;0.9;;;;;;;11.5;95.9043;944.5729;;;;
2023/09/24 02:12:09;;;;;;;2;1.2;;;;;;;11.47;95.22363;944.5963;;;;
2023/09/24 02:14:34;;;;;;;1.4;1;;;;;;;11.33;96.18652;944.6519;;;;
2023/09/24 02:16:59;;;;;;;2.1;1.3;;;;;;;11.46;95.97461;944.7244;;;;
2023/09/24 02:19:26;;;;;;;0.7;0.7;;;;;;;11.47;96.59668;944.7885;;;;
2023/09/24 02:21:50;;;;;;;1;0.8;;;;;;;11.47;96.76855;944.7167;;;;
2023/09/24 02:24:15;;;;;;;2.6;1.3;;;;;;;11.31;96.66309;944.8262;;;;
2023/09/24 02:26:41;;;;;;;0.8;0.7;;;;;;;11.23;96.70215;944.8416;;;;
2023/09/24 02:29:07;;;;;;;1.2;0.9;;;;;;;11.3;96.91309;944.8914;;;;
2023/09/24 02:31:32;;;;;;;1;0.7;;;;;;;11.28;96.99805;944.9141;;;;
2023/09/24 02:33:57;;;;;;;1.1;0.9;;;;;;;11.28;97.61816;944.9534;;;;
2023/09/24 02:36:22;;;;;;;1.3;0.8;;;;;;;11.45;96.55566;944.9445;;;;
2023/09/24 02:38:50;;;;;;;1.3;0.8;;;;;;;11.41;96.71973;944.9048;;;;
2023/09/24 02:41:13;;;;;;;1.1;0.9;;;;;;;11.28;97.79883;944.9796;;;;
2023/09/24 02:43:41;;;;;;;1.5;0.8;;;;;;;11.35;97.4834;944.9736;;;;
2023/09/24 02:46:03;;;;;;;1.2;0.8;;;;;;;11.45;96.80762;945.0139;;;;
2023/09/24 02:48:28;;;;;;;1.6;1.1;;;;;;;11.62;95.90918;945.0497;;;;
2023/09/24 02:50:54;;;;;;;1.8;1;;;;;;;11.6;96.32715;944.9963;;;;
2023/09/24 02:53:18;;;;;;;1.5;0.9;;;;;;;11.71;95.6543;945.0176;;;;
2023/09/24 02:55:45;;;;;;;1.1;1;;;;;;;11.72;96.06738;945.1063;;;;
2023/09/24 02:58:08;;;;;;;1.1;0.9;;;;;;;11.52;95.76172;945.1403;;;;
2023/09/24 03:00:36;;;;;;;0.9;0.7;;;;;;;11.35;97.62109;945.1617;;;;
2023/09/24 03:03:01;;;;;;;1;0.6;;;;;;;11.38;97.7207;945.2046;;;;
2023/09/24 03:05:28;;;;;;;2.6;0.9;;;;;;;11.48;96.71094;945.2017;;;;
2023/09/24 03:07:53;;;;;;;1.6;1;;;;;;;11.63;95.98926;945.1967;;;;
2023/09/24 03:10:23;;;;;;;4.3;1.1;;;;;;;11.71;95.28613;945.2162;;;;
2023/09/24 03:12:52;;;;;;;1.4;0.8;;;;;;;11.72;94.72754;945.2156;;;;
2023/09/24 03:15:17;;;;;;;2.2;0.9;;;;;;;11.77;94.6709;945.2092;;;;
2023/09/24 03:17:48;;;;;;;1;0.9;;;;;;;11.72;94.94531;945.222;;;;
2023/09/24 03:20:17;;;;;;;2.5;0.9;;;;;;;11.74;95.31543;945.2789;;;;
2023/09/24 03:22:40;;;;;;;2.1;1.1;;;;;;;11.61;95.32227;945.2873;;;;
2023/09/24 03:25:06;;;;;;;1.1;0.8;;;;;;;11.47;95.77246;945.2901;;;;
2023/09/24 03:27:32;;;;;;;2.1;0.8;;;;;;;11.35;96.47852;945.2982;;;;
2023/09/24 03:29:56;;;;;;;1.1;0.9;;;;;;;11.27;96.74707;945.3014;;;;
2023/09/24 03:32:21;;;;;;;1.9;1;;;;;;;11.31;96.57129;945.3348;;;;
2023/09/24 03:34:47;;;;;;;2.7;1;;;;;;;11.19;97.07129;945.3563;;;;
2023/09/24 03:37:14;;;;;;;1.9;0.8;;;;;;;11.2;97.40527;945.3917;;;;
2023/09/24 03:39:39;;;;;;;1;0.8;;;;;;;11.34;96.93262;945.3992;;;;
2023/09/24 03:42:14;;;;;;;2.8;0.8;;;;;;;11.24;97.10449;945.3527;;;;
2023/09/24 03:44:38;;;;;;;1.6;0.9;;;;;;;11.27;97.04395;945.3661;;;;
2023/09/24 03:47:03;;;;;;;0.9;0.8;;;;;;;11.23;97.12695;945.3734;;;;
2023/09/24 03:49:27;;;;;;;1.9;1;;;;;;;11.25;96.77441;945.3832;;;;
2023/09/24 03:51:58;;;;;;;1.1;0.8;;;;;;;11.26;96.60742;945.3284;;;;
2023/09/24 03:54:28;;;;;;;1;1;;;;;;;11.25;96.7998;945.3961;;;;
2023/09/24 03:56:52;;;;;;;1.2;1.1;;;;;;;10.96;97.44336;945.449;;;;
2023/09/24 03:59:21;;;;;;;1;0.9;;;;;;;10.9;98.10352;945.3976;;;;
2023/09/24 04:02:32;;;;;;;1;0.8;;;;;;;10.97;98.24414;945.3399;;;;
2023/09/24 04:04:57;;;;;;;1.7;1;;;;;;;11.13;97.78906;945.4302;;;;
2023/09/24 04:07:22;;;;;;;1;0.9;;;;;;;11.25;97.54102;945.337;;;;
2023/09/24 04:09:49;;;;;;;1.4;0.9;;;;;;;11.25;96.74219;945.3563;;;;
2023/09/24 04:12:14;;;;;;;1.2;0.9;;;;;;;11.18;96.45215;945.384;;;;
2023/09/24 04:14:41;;;;;;;0.9;0.9;;;;;;;11.17;96.58496;945.3926;;;;
2023/09/24 04:17:07;;;;;;;1.2;0.9;;;;;;;11.19;96.48828;945.4138;;;;
2023/09/24 04:19:37;;;;;;;1;0.9;;;;;;;11.24;96.5;945.3934;;;;
2023/09/24 04:22:02;;;;;;;0.9;0.9;;;;;;;11.36;95.93164;945.4291;;;;
2023/09/24 04:24:30;;;;;;;0.9;0.8;;;;;;;11.41;95.53027;945.4131;;;;
2023/09/24 04:27:02;;;;;;;0.8;0.8;;;;;;;11.48;95.32813;945.3566;;;;
2023/09/24 04:29:30;;;;;;;1.1;0.8;;;;;;;11.54;95.05566;945.4357;;;;
2023/09/24 04:31:55;;;;;;;1;0.8;;;;;;;11.58;95.47559;945.489;;;;
2023/09/24 04:34:27;;;;;;;1.6;1;;;;;;;11.6;95.38867;945.5173;;;;
2023/09/24 04:36:52;;;;;;;1.1;0.9;;;;;;;11.46;95.17578;945.4758;;;;
2023/09/24 04:39:19;;;;;;;1.5;0.8;;;;;;;11.44;95.36621;945.4819;;;;
2023/09/24 04:41:43;;;;;;;1.5;1.1;;;;;;;11.42;95.40625;945.4352;;;;
2023/09/24 04:44:12;;;;;;;1.3;0.9;;;;;;;11.38;95.55859;945.5131;;;;
2023/09/24 04:46:45;;;;;;;1.1;0.9;;;;;;;11.38;95.72949;945.5228;;;;
2023/09/24 04:49:17;;;;;;;1.2;0.7;;;;;;;11.37;95.80762;945.5417;;;;
2023/09/24 04:51:42;;;;;;;2.1;1.1;;;;;;;11.39;95.78906;945.5604;;;;
2023/09/24 04:54:11;;;;;;;1.2;0.9;;;;;;;11.44;96.05273;945.5344;;;;
2023/09/24 04:56:36;;;;;;;1;0.9;;;;;;;11.55;95.80176;945.6209;;;;
2023/09/24 04:59:01;;;;;;;1.8;0.9;;;;;;;11.58;95.49902;945.5697;;;;
2023/09/24 05:01:34;;;;;;;1.4;0.9;;;;;;;11.46;95.73438;945.5595;;;;
2023/09/24 05:04:03;;;;;;;0.9;0.7;;;;;;;11.44;95.66211;945.615;;;;
2023/09/24 05:06:29;;;;;;;1.1;1;;;;;;;11.36;95.74707;945.5845;;;;
2023/09/24 05:08:54;;;;;;;1.3;1.1;;;;;;;11.22;96.07129;945.6003;;;;
2023/09/24 05:11:19;;;;;;;0.8;0.8;;;;;;;11.2;96.93457;945.6642;;;;
2023/09/24 05:13:49;;;;;;;1.6;0.8;;;;;;;11.14;96.83301;945.6839;;;;
2023/09/24 05:16:15;;;;;;;1.9;1.3;;;;;;;11.08;96.79395;945.6755;;;;
2023/09/24 05:18:40;;;;;;;1.3;1;;;;;;;11.09;97.41504;945.6462;;;;
2023/09/24 05:21:06;;;;;;;1.8;1;;;;;;;11.17;97.06543;945.6581;;;;
2023/09/24 05:23:31;;;;;;;1.1;1;;;;;;;11.25;96.68555;945.6655;;;;
2023/09/24 05:26:03;;;;;;;1.8;1;;;;;;;11.18;96.74707;945.6725;;;;
2023/09/24 05:28:32;;;;;;;1.1;0.9;;;;;;;11.27;97.02148;945.6778;;;;
2023/09/24 05:31:02;;;;;;;2;1;;;;;;;11.37;96.13965;945.6749;;;;
2023/09/24 05:33:25;;;;;;;1.7;1;;;;;;;11.22;96.75781;945.6792;;;;
2023/09/24 05:35:51;;;;;;;1.5;0.9;;;;;;;11.25;97.08398;945.6647;;;;
2023/09/24 05:38:17;;;;;;;1.5;1;;;;;;;11.07;97.5;945.6705;;;;
2023/09/24 05:40:42;;;;;;;0.7;0.6;;;;;;;11.19;96.93457;945.7548;;;;
2023/09/24 05:43:08;;;;;;;1;0.9;;;;;;;11.01;97.4082;945.8444;;;;
2023/09/24 05:45:33;;;;;;;1.5;1.2;;;;;;;10.94;97.51758;945.8694;;;;
2023/09/24 05:47:58;;;;;;;1.6;0.9;;;;;;;11.02;97.90137;945.8886;;;;
2023/09/24 05:50:29;;;;;;;1.9;1.1;;;;;;;11.23;97.32227;945.831;;;;
2023/09/24 05:53:03;;;;;;;1.9;1.1;;;;;;;11.12;97.84375;945.8908;;;;
2023/09/24 05:55:27;;;;;;;1.9;1.4;;;;;;;11.04;98.39746;945.8995;;;;
2023/09/24 05:57:52;;;;;;;1.4;1.3;;;;;;;11.07;98.92969;945.8379;;;;
2023/09/24 06:00:24;;;;;;;1.7;1.2;;;;;;;11.1;98.02344;945.8736;;;;
2023/09/24 06:02:52;;;;;;;2;1.2;;;;;;;11.15;97.49609;945.8834;;;;
2023/09/24 06:05:17;;;;;;;2.1;0.9;;;;;;;11.1;97.61133;945.9749;;;;
2023/09/24 06:07:47;;;;;;;2.9;1.2;;;;;;;11.16;98.03516;945.897;;;;
2023/09/24 06:10:12;;;;;;;1.6;1.2;;;;;;;11.23;97.91211;945.9481;;;;
2023/09/24 06:12:42;;;;;;;2.8;1.5;;;;;;;11.33;96.73535;945.9214;;;;
2023/09/24 06:15:07;;;;;;;2.8;1.2;;;;;;;11.42;96.09277;945.9216;;;;
2023/09/24 06:17:33;;;;;;;2.9;1.2;;;;;;;11.39;96.24414;945.9997;;;;
2023/09/24 06:19:57;;;;;;;3.5;1.2;;;;;;;11.52;95.50977;946.0217;;;;
2023/09/24 06:22:29;;;;;;;1.4;1.1;;;;;;;11.53;95.03125;946.041;;;;
2023/09/24 06:24:57;;;;;;;2.2;1.1;;;;;;;11.67;93.45605;946.0148;;;;
2023/09/24 06:27:22;;;;;;;3.1;1;;;;;;;11.93;93.82422;946.032;;;;
2023/09/24 06:29:48;;;;;;;1;0.9;;;;;;;11.79;92.48535;946.0468;;;;
2023/09/24 06:32:13;;;;;;;1.3;1;;;;;;;11.59;92.98535;946.125;;;;
2023/09/24 06:34:43;;;;;;;1.5;1;;;;;;;11.95;92.99121;946.1584;;;;
2023/09/24 06:37:13;;;;;;;1.2;1;;;;;;;12.3;91.55176;946.1047;;;;
2023/09/24 06:39:37;;;;;;;1.1;0.8;;;;;;;12.47;89.74121;946.1986;;;;
2023/09/24 06:42:03;;;;;;;1.4;1.1;;;;;;;12.75;90.48828;946.1383;;;;
2023/09/24 06:44:31;;;;;;;1.1;1;;;;;;;13.01;87.85742;946.1079;;;;
2023/09/24 06:46:57;;;;;;;1.2;0.9;;;;;;;13.17;86.06055;946.1625;;;;
2023/09/24 06:49:23;;;;;;;2.4;0.9;;;;;;;13.39;85.4502;946.205;;;;
2023/09/24 06:51:51;;;;;;;2.7;1.1;;;;;;;;;;;;;
2023/09/24 06:54:13;;;;;;;1;0.9;;;;;;;;;;;;;
2023/09/24 06:56:38;;;;;;;2.7;1;;;;;;;;;;;;;
2023/09/24 06:59:09;;;;;;;1.6;0.9;;;;;;;;;;;;;
2023/09/24 07:01:29;;;;;;;1.1;1;;;;;;;;;;;;;
2023/09/24 07:03:55;;;;;;;1.1;1;;;;;;;;;;;;;
2023/09/24 07:06:21;;;;;;;1.5;1;;;;;;;;;;;;;
2023/09/24 07:08:45;;;;;;;1.1;1;;;;;;;;;;;;;
2023/09/24 07:11:10;;;;;;;1.8;1.1;;;;;;;;;;;;;
2023/09/24 07:13:36;;;;;;;1.4;0.8;;;;;;;;;;;;;
2023/09/24 07:16:01;;;;;;;2.2;1.1;;;;;;;;;;;;;
2023/09/24 07:18:28;;;;;;;2.6;1;;;;;;;;;;;;;
2023/09/24 07:20:53;;;;;;;1.3;0.9;;;;;;;;;;;;;
2023/09/24 07:23:20;;;;;;;1.7;1.2;;;;;;;;;;;;;
2023/09/24 07:25:45;;;;;;;3;1.1;;;;;;;;;;;;;
2023/09/24 07:28:11;;;;;;;1.4;1.1;;;;;;;;;;;;;
2023/09/24 07:30:36;;;;;;;2.9;1;;;;;;;;;;;;;
2023/09/24 07:33:01;;;;;;;2.2;0.8;;;;;;;;;;;;;
2023/09/24 07:35:27;;;;;;;1.1;1;;;;;;;;;;;;;
2023/09/24 07:37:52;;;;;;;0.7;0.7;;;;;;;;;;;;;
2023/09/24 07:40:21;;;;;;;1.1;1;;;;;;;;;;;;;
2023/09/24 07:42:46;;;;;;;2.4;1;;;;;;;;;;;;;
2023/09/24 07:45:13;;;;;;;1.5;0.8;;;;;;;;;;;;;
2023/09/24 07:47:38;;;;;;;1.3;0.9;;;;;;;;;;;;;
2023/09/24 07:50:03;;;;;;;1.5;0.8;;;;;;;;;;;;;
2023/09/24 07:52:28;;;;;;;0.8;0.8;;;;;;;;;;;;;
2023/09/24 07:54:53;;;;;;;2.5;0.7;;;;;;;;;;;;;
2023/09/24 07:57:19;;;;;;;1.3;1;;;;;;;;;;;;;
2023/09/24 07:59:46;;;;;;;0.7;0.7;;;;;;;;;;;;;
2023/09/24 08:02:11;;;;;;;2.3;1;;;;;;;;;;;;;
2023/09/24 08:04:37;;;;;;;1;0.8;;;;;;;;;;;;;
2023/09/24 08:07:02;;;;;;;1.1;0.9;;;;;;;;;;;;;
2023/09/24 08:09:30;;;;;;;1.6;0.9;;;;;;;;;;;;;
2023/09/24 08:11:55;;;;;;;1;0.9;;;;;;;;;;;;;
2023/09/24 08:14:19;;;;;;;1.6;1.1;;;;;;;;;;;;;
2023/09/24 08:16:45;;;;;;;1;0.9;;;;;;;;;;;;;
2023/09/24 08:19:12;;;;;;;1.9;0.9;;;;;;;;;;;;;
2023/09/24 08:21:37;;;;;;;1.3;0.9;;;;;;;;;;;;;
2023/09/24 08:24:02;;;;;;;2.7;1;;;;;;;;;;;;;
2023/09/24 08:26:27;;;;;;;1.5;1.1;;;;;;;;;;;;;
2023/09/24 08:28:54;;;;;;;1.4;1;;;;;;;;;;;;;
2023/09/24 08:31:20;;;;;;;1.4;1.1;;;;;;;;;;;;;
2023/09/24 08:33:45;;;;;;;3.7;1.2;;;;;;;;;;;;;
2023/09/24 08:36:11;;;;;;;1.9;1;;;;;;;;;;;;;
2023/09/24 08:38:36;;;;;;;6.3;1.4;;;;;;;;;;;;;
2023/09/24 08:41:01;;;;;;;1.8;1;;;;;;;;;;;;;
2023/09/24 08:43:27;;;;;;;3.9;1.4;;;;;;;;;;;;;
2023/09/24 08:45:51;;;;;;;2.2;1.3;;;;;;;;;;;;;
2023/09/24 08:48:17;;;;;;;2.2;1.6;;;;;;;;;;;;;
2023/09/24 08:50:43;;;;;;;1.6;1.4;;;;;;;;;;;;;
2023/09/24 08:53:08;;;;;;;1.6;1.1;;;;;;;;;;;;;
2023/09/24 08:55:33;;;;;;;3.8;1.3;;;;;;;;;;;;;
2023/09/24 08:57:59;;;;;;;2.2;1.2;;;;;;;;;;;;;
2023/09/24 09:00:25;;;;;;;1.4;0.9;;;;;;;;;;;;;
2023/09/24 09:02:50;;;;;;;1.2;1.1;;;;;;;;;;;;;
2023/09/24 09:05:16;;;;;;;2.1;1.1;;;;;;;;;;;;;
2023/09/24 09:07:41;;;;;;;1.8;1;;;;;;;;;;;;;
2023/09/24 09:10:08;;;;;;;1.2;1.1;;;;;;;;;;;;;
2023/09/24 09:12:33;;;;;;;1.1;1;;;;;;;;;;;;;
2023/09/24 09:14:59;;;;;;;1.7;1.1;;;;;;;;;;;;;
2023/09/24 09:17:25;;;;;;;1;0.9;;;;;;;;;;;;;
2023/09/24 09:19:52;;;;;;;1.7;0.9;;;;;;;;;;;;;
2023/09/24 09:22:16;;;;;;;1.3;1;;;;;;;;;;;;;
2023/09/24 09:24:41;;;;;;;1.5;1;;;;;;;;;;;;;
2023/09/24 09:27:06;;;;;;;1.1;0.9;;;;;;;;;;;;;
2023/09/24 09:29:32;;;;;;;1;0.9;;;;;;;;;;;;;
2023/09/24 09:31:56;;;;;;;1.6;0.9;;;;;;;;;;;;;
2023/09/24 09:34:22;;;;;;;1.2;1.1;;;;;;;;;;;;;
2023/09/24 09:36:47;;;;;;;1;0.9;;;;;;;;;;;;;
2023/09/24 09:39:12;;;;;;;0.9;0.8;;;;;;;;;;;;;
2023/09/24 09:41:37;;;;;;;2;0.9;;;;;;;;;;;;;
2023/09/24 09:44:03;;;;;;;0.9;0.8;;;;;;;;;;;;;
2023/09/24 09:46:28;;;;;;;2.3;0.8;;;;;;;;;;;;;
2023/09/24 09:48:54;;;;;;;1.3;1;;;;;;;;;;;;;
2023/09/24 09:51:19;;;;;;;2.9;0.9;;;;;;;;;;;;;
2023/09/24 09:53:45;;;;;;;1.2;0.8;;;;;;;;;;;;;
2023/09/24 09:56:10;;;;;;;1.2;0.8;;;;;;;;;;;;;
2023/09/24 09:58:36;;;;;;;1.6;1;;;;;;;;;;;;;
2023/09/24 10:01:00;;;;;;;1.5;0.9;;;;;;;;;;;;;
2023/09/24 10:03:26;;;;;;;1.6;1;;;;;;;;;;;;;
2023/09/24 10:05:51;;;;;;;1.2;1;;;;;;;;;;;;;
2023/09/24 10:08:18;;;;;;;2.6;0.9;;;;;;;;;;;;;
2023/09/24 10:10:44;;;;;;;1.7;0.9;;;;;;;;;;;;;
2023/09/24 10:13:08;;;;;;;1.2;1;;;;;;;;;;;;;
2023/09/24 10:15:33;;;;;;;2.9;1;;;;;;;;;;;;;
2023/09/24 10:17:58;;;;;;;2.2;1.1;;;;;;;;;;;;;
2023/09/24 10:20:23;;;;;;;1.8;0.9;;;;;;;;;;;;;
2023/09/24 10:22:49;;;;;;;1.1;1;;;;;;;;;;;;;
2023/09/24 10:25:14;;;;;;;1.7;0.9;;;;;;;;;;;;;
2023/09/24 10:27:39;;;;;;;2.7;1.1;;;;;;;;;;;;;
2023/09/24 10:30:04;;;;;;;1.5;0.9;;;;;;;;;;;;;
2023/09/24 10:32:29;;;;;;;1;0.9;;;;;;;;;;;;;
2023/09/24 10:34:54;;;;;;;2.2;1.1;;;;;;;;;;;;;
2023/09/24 10:37:19;;;;;;;1.4;1;;;;;;;;;;;;;
2023/09/24 10:39:44;;;;;;;1.1;0.9;;;;;;;;;;;;;
2023/09/24 10:42:09;;;;;;;1.4;1.1;;;;;;;;;;;;;
2023/09/24 10:44:37;;;;;;;1.4;1;;;;;;;;;;;;;
2023/09/24 10:46:59;;;;;;;3;0.9;;;;;;;;;;;;;
2023/09/24 10:49:27;;;;;;;1.4;1;;;;;;;;;;;;;
2023/09/24 10:51:52;;;;;;;2.2;1.2;;;;;;;;;;;;;
2023/09/24 10:54:17;;;;;;;1.7;1;;;;;;;;;;;;;
2023/09/24 10:56:42;;;;;;;1.2;1;;;;;;;;;;;;;
2023/09/24 10:59:08;;;;;;;1.4;1.3;;;;;;;;;;;;;
2023/09/24 11:01:32;;;;;;;1.1;0.8;;;;;;;;;;;;;
2023/09/24 11:03:59;;;;;;;3.1;1;;;;;;;;;;;;;
2023/09/24 11:06:24;;;;;;;1.6;0.9;;;;;;;;;;;;;
2023/09/24 11:08:49;;;;;;;2.2;1.1;;;;;;;;;;;;;
2023/09/24 11:11:16;;;;;;;2.6;1.1;;;;;;;;;;;;;
2023/09/24 11:13:39;;;;;;;3.1;1.2;;;;;;;;;;;;;
2023/09/24 11:16:04;;;;;;;1.6;1.3;;;;;;;;;;;;;
2023/09/24 11:18:32;;;;;;;1.5;1.1;;;;;;;;;;;;;
2023/09/24 11:20:55;;;;;;;1.7;1;;;;;;;;;;;;;
2023/09/24 11:23:20;;;;;;;2.2;1.4;;;;;;;;;;;;;
2023/09/24 11:25:45;;;;;;;1.7;1;;;;;;;;;;;;;
2023/09/24 11:28:10;;;;;;;1.5;0.8;;;;;;;;;;;;;
2023/09/24 11:30:36;;;;;;;1.9;0.7;;;;;;;;;;;;;
2023/09/24 11:33:02;;;;;;;1.7;1.1;;;;;;;;;;;;;
2023/09/24 11:35:28;;;;;;;1.2;0.9;;;;;;;;;;;;;
2023/09/24 11:37:52;;;;;;;1.3;0.9;;;;;;;;;;;;;
2023/09/24 11:40:17;;;;;;;1.7;1;;;;;;;;;;;;;
2023/09/24 11:42:43;;;;;;;2;0.9;;;;;;;;;;;;;
2023/09/24 11:45:11;;;;;;;2.2;0.9;;;;;;;;;;;;;
2023/09/24 11:47:34;;;;;;;2.1;1;;;;;;;;;;;;;
2023/09/24 11:49:59;;;;;;;1.1;0.9;;;;;;;;;;;;;
2023/09/24 11:52:27;;;;;;;1.5;1.1;;;;;;;;;;;;;
2023/09/24 11:54:50;;;;;;;3.1;1.1;;;;;;;;;;;;;
2023/09/24 11:57:16;;;;;;;3.1;1.1;;;;;;;;;;;;;
2023/09/24 11:59:42;;;;;;;2.1;1.3;;;;;;;;;;;;;
2023/09/24 12:02:08;;;;;;;1.8;1.1;;;;;;;;;;;;;
2023/09/24 12:04:33;;;;;;;1;0.9;;;;;;;;;;;;;
2023/09/24 12:07:00;;;;;;;2.2;1.2;;;;;;;;;;;;;
2023/09/24 12:09:25;;;;;;;2.6;1.2;;;;;;;;;;;;;
2023/09/24 12:11:50;;;;;;;1.9;1;;;;;;;;;;;;;
2023/09/24 12:14:15;;;;;;;0.9;0.9;;;;;;;;;;;;;
2023/09/24 12:16:42;;;;;;;2.5;1;;;;;;;;;;;;;
2023/09/24 12:19:07;;;;;;;1.5;0.9;;;;;;;;;;;;;
2023/09/24 12:21:33;;;;;;;1.4;1;;;;;;;;;;;;;
2023/09/24 12:23:59;;;;;;;2;1.1;;;;;;;;;;;;;
2023/09/24 12:26:25;;;;;;;1.6;1.1;;;;;;;;;;;;;
2023/09/24 12:28:50;;;;;;;2;1.1;;;;;;;;;;;;;
2023/09/24 12:31:15;;;;;;;1.5;1;;;;;;;;;;;;;
2023/09/24 12:33:40;;;;;;;2.1;1;;;;;;;;;;;;;
2023/09/24 12:36:06;;;;;;;1.3;1;;;;;;;;;;;;;
2023/09/24 12:38:35;;;;;;;1.6;0.9;;;;;;;;;;;;;
2023/09/24 12:40:57;;;;;;;1.6;1;;;;;;;;;;;;;
2023/09/24 12:43:22;;;;;;;1.9;0.8;;;;;;;;;;;;;
2023/09/24 12:45:47;;;;;;;1.1;0.7;;;;;;;;;;;;;
2023/09/24 12:48:12;;;;;;;1.5;0.8;;;;;;;;;;;;;
2023/09/24 12:50:37;;;;;;;2;1;;;;;;;;;;;;;
2023/09/24 12:53:04;;;;;;;1;0.8;;;;;;;;;;;;;
2023/09/24 12:55:29;;;;;;;1.1;0.9;;;;;;;;;;;;;
2023/09/24 12:57:55;;;;;;;1;0.8;;;;;;;;;;;;;
2023/09/24 13:00:21;;;;;;;1.4;0.9;;;;;;;;;;;;;
2023/09/24 13:02:46;;;;;;;2.3;1.2;;;;;;;;;;;;;
2023/09/24 13:05:11;;;;;;;2;1.3;;;;;;;;;;;;;
2023/09/24 13:07:36;;;;;;;2.1;1.2;;;;;;;;;;;;;
2023/09/24 13:10:02;;;;;;;2;1.2;;;;;;;;;;;;;
2023/09/24 13:12:27;;;;;;;1.8;1.2;;;;;;;;;;;;;
2023/09/24 13:14:52;;;;;;;2.3;0.9;;;;;;;;;;;;;
2023/09/24 13:17:17;;;;;;;2.9;1;;;;;;;;;;;;;
2023/09/24 13:19:42;;;;;;;0.9;0.8;;;;;;;;;;;;;
2023/09/24 13:22:07;;;;;;;1.3;0.9;;;;;;;;;;;;;
2023/09/24 13:24:38;;;;;;;1.8;1.1;;;;;;;;;;;;;
2023/09/24 13:26:58;;;;;;;1.9;0.8;;;;;;;;;;;;;
2023/09/24 13:29:24;;;;;;;1.9;0.8;;;;;;;;;;;;;
2023/09/24 13:31:49;;;;;;;1;0.8;;;;;;;;;;;;;
2023/09/24 13:34:15;;;;;;;1.7;0.8;;;;;;;;;;;;;
2023/09/24 13:36:39;;;;;;;1.4;1.1;;;;;;;;;;;;;
2023/09/24 13:39:05;;;;;;;1.2;1;;;;;;;;;;;;;
2023/09/24 13:41:30;;;;;;;1.3;0.9;;;;;;;;;;;;;
2023/09/24 13:43:57;;;;;;;1.5;0.9;;;;;;;;;;;;;
2023/09/24 13:46:22;;;;;;;2.3;0.9;;;;;;;;;;;;;
2023/09/24 13:48:49;;;;;;;1.3;1;;;;;;;;;;;;;
2023/09/24 13:51:14;;;;;;;1.4;1;;;;;;;;;;;;;
2023/09/24 13:53:39;;;;;;;2.2;1.2;;;;;;;;;;;;;
2023/09/24 13:56:05;;;;;;;2.2;0.9;;;;;;;;;;;;;
2023/09/24 13:58:29;;;;;;;2.6;1.1;;;;;;;;;;;;;
2023/09/24 14:00:55;;;;;;;1.6;1;;;;;;;;;;;;;
2023/09/24 14:03:20;;;;;;;2.3;1;;;;;;;;;;;;;
2023/09/24 14:05:45;;;;;;;1.9;1;;;;;;;;;;;;;
2023/09/24 14:13:00;;;;;;;1;0.8;;;;;;;;;;;;;
2023/09/24 14:15:28;;;;;;;0.7;0.7;;;;;;;;;;;;;
2023/09/24 14:17:53;;;;;;;1.7;0.8;;;;;;;;;;;;;
2023/09/24 14:20:18;;;;;;;1.1;0.8;;;;;;;;;;;;;
2023/09/24 14:22:43;;;;;;;1.7;0.9;;;;;;;;;;;;;
2023/09/24 14:25:11;;;;;;;1.6;0.9;;;;;;;;;;;;;
2023/09/24 14:27:36;;;;;;;1.3;0.9;;;;;;;;;;;;;
2023/09/24 14:30:01;;;;;;;1.5;0.9;;;;;;;;;;;;;
2023/09/24 14:32:26;;;;;;;2.8;1;;;;;;;;;;;;;
2023/09/24 14:34:51;;;;;;;3.6;1;;;;;;;;;;;;;
2023/09/24 14:37:17;;;;;;;1.2;0.8;;;;;;;;;;;;;
2023/09/24 14:39:42;;;;;;;1.5;1;;;;;;;;;;;;;
2023/09/24 14:42:07;;;;;;;2.4;0.8;;;;;;;;;;;;;
2023/09/24 14:44:36;;;;;;;1.2;0.8;;;;;;;;;;;;;
2023/09/24 14:46:57;;;;;;;1.2;1;;;;;;;;;;;;;
2023/09/24 14:49:22;;;;;;;1.3;0.9;;;;;;;;;;;;;
2023/09/24 14:51:47;;;;;;;1;0.8;;;;;;;;;;;;;
2023/09/24 14:54:13;;;;;;;5;1;;;;;;;;;;;;;
2023/09/24 14:56:38;;;;;;;1.7;0.7;;;;;;;;;;;;;
2023/09/24 14:59:04;;;;;;;1.4;1.1;;;;;;;;;;;;;
2023/09/24 15:01:29;;;;;;;1.2;1;;;;;;;;;;;;;
2023/09/24 15:03:56;;;;;;;1.8;1.1;;;;;;;;;;;;;
2023/09/24 15:06:21;;;;;;;0.9;0.8;;;;;;;;;;;;;
2023/09/24 15:08:46;;;;;;;1;0.7;;;;;;;;;;;;;
2023/09/24 15:11:11;;;;;;;1.8;0.8;;;;;;;;;;;;;
2023/09/24 15:13:36;;;;;;;1.5;0.9;;;;;;;;;;;;;
2023/09/24 15:16:01;;;;;;;1.5;1;;;;;;;;;;;;;
2023/09/24 15:18:27;;;;;;;4.3;1.1;;;;;;;;;;;;;
2023/09/24 15:20:52;;;;;;;2.3;0.8;;;;;;;;;;;;;
2023/09/24 15:23:17;;;;;;;1.8;0.9;;;;;;;;;;;;;
2023/09/24 15:25:43;;;;;;;1.2;1;;;;;;;;;;;;;
2023/09/24 15:28:08;;;;;;;1.8;0.7;;;;;;;;;;;;;
2023/09/24 15:30:33;;;;;;;1.9;0.9;;;;;;;;;;;;;
2023/09/24 15:32:59;;;;;;;1.6;1;;;;;;;;;;;;;
2023/09/24 15:35:23;;;;;;;1.2;0.9;;;;;;;;;;;;;
2023/09/24 15:37:48;;;;;;;1.6;0.9;;;;;;;;;;;;;
2023/09/24 15:40:15;;;;;;;0.8;0.7;;;;;;;;;;;;;
2023/09/24 15:42:39;;;;;;;1.4;0.9;;;;;;;;;;;;;
2023/09/24 15:45:06;;;;;;;1.4;1;;;;;;;;;;;;;
2023/09/24 15:47:29;;;;;;;1.2;1;;;;;;;;;;;;;
2023/09/24 15:49:57;;;;;;;1.9;1.4;;;;;;;;;;;;;
2023/09/24 15:52:19;;;;;;;3.5;1.1;;;;;;;;;;;;;
2023/09/24 15:54:45;;;;;;;1.6;1;;;;;;;;;;;;;
2023/09/24 15:57:11;;;;;;;1.5;1;;;;;;;;;;;;;
2023/09/24 15:59:36;;;;;;;3.4;1;;;;;;;;;;;;;
2023/09/24 16:02:01;;;;;;;1.4;0.9;;;;;;;;;;;;;
2023/09/24 16:04:27;;;;;;;2.7;1.3;;;;;;;;;;;;;
2023/09/24 16:06:52;;;;;;;1.5;1.4;;;;;;;;;;;;;
2023/09/24 16:09:18;;;;;;;5.7;1.5;;;;;;;;;;;;;
2023/09/24 16:11:43;;;;;;;1.7;1.2;;;;;;;;;;;;;
2023/09/24 16:14:09;;;;;;;3;1.2;;;;;;;;;;;;;
2023/09/24 16:16:34;;;;;;;1.5;1.1;;;;;;;;;;;;;
2023/09/24 16:19:00;;;;;;;1.8;1.3;;;;;;;;;;;;;
2023/09/24 16:21:25;;;;;;;2.8;1.2;;;;;;;;;;;;;
2023/09/24 16:23:50;;;;;;;1.8;1.3;;;;;;;;;;;;;
2023/09/24 16:26:17;;;;;;;2.4;1.3;;;;;;;;;;;;;
2023/09/24 16:28:40;;;;;;;1.4;1.2;;;;;;;;;;;;;
2023/09/24 16:31:06;;;;;;;1.7;1.3;;;;;;;;;;;;;
2023/09/24 16:33:31;;;;;;;2.3;1.5;;;;;;;;;;;;;
2023/09/24 16:36:00;;;;;;;1.8;1.6;;;;;;;;;;;;;
2023/09/24 16:38:24;;;;;;;1.5;1.3;;;;;;;;;;;;;
2023/09/24 16:40:51;;;;;;;1.5;1.3;;;;;;;;;;;;;
2023/09/24 16:43:16;;;;;;;3.5;1.2;;;;;;;;;;;;;
2023/09/24 16:45:41;;;;;;;2.5;1.1;;;;;;;;;;;;;
2023/09/24 16:48:06;;;;;;;1.9;1.1;;;;;;;;;;;;;
2023/09/24 16:50:33;;;;;;;1.9;1.3;;;;;;;;;;;;;
2023/09/24 16:52:58;;;;;;;2.4;1.2;;;;;;;;;;;;;
2023/09/24 16:55:24;;;;;;;1.7;1.4;;;;;;;;;;;;;
2023/09/24 16:57:49;;;;;;;1.7;1.3;;;;;;;;;;;;;
2023/09/24 17:00:18;;;;;;;2.2;1.2;;;;;;;;;;;;;
2023/09/24 17:02:43;;;;;;;1.7;1.1;;;;;;;;;;;;;
2023/09/24 17:05:11;;;;;;;3;1.2;;;;;;;;;;;;;
2023/09/24 17:07:36;;;;;;;2;1.4;;;;;;;;;;;;;
2023/09/24 17:10:01;;;;;;;2.4;1.3;;;;;;;;;;;;;
2023/09/24 17:12:26;;;;;;;4;1.7;;;;;;;;;;;;;
2023/09/24 17:14:51;;;;;;;3;1.3;;;;;;;;;;;;;
2023/09/24 17:17:16;;;;;;;2.6;1.1;;;;;;;;;;;;;
2023/09/24 17:19:41;;;;;;;3.2;1.4;;;;;;;;;;;;;
2023/09/24 17:22:06;;;;;;;3.1;1.2;;;;;;;;;;;;;
2023/09/24 17:24:32;;;;;;;3.7;1.3;;;;;;;;;;;;;
2023/09/24 17:26:57;;;;;;;2.4;1.7;;;;;;;;;;;;;
2023/09/24 17:29:22;;;;;;;2.2;1.8;;;;;;;;;;;;;
2023/09/24 17:31:47;;;;;;;2.7;1.8;;;;;;;;;;;;;
2023/09/24 17:34:15;;;;;;;4.3;1.5;;;;;;;;;;;;;
2023/09/24 17:36:38;;;;;;;3.9;1.6;;;;;;;;;;;;;
2023/09/24 17:39:03;;;;;;;2.5;1.7;;;;;;;;;;;;;
2023/09/24 17:41:29;;;;;;;2.1;1.4;;;;;;;;;;;;;
2023/09/24 17:43:53;;;;;;;3.1;1.8;;;;;;;;;;;;;
2023/09/24 17:46:23;;;;;;;1.7;1.3;;;;;;;;;;;;;
2023/09/24 17:48:43;;;;;;;1.9;1.6;;;;;;;;;;;;;